Time;durP1;ratioP1;P1;durP2;ratioP2;P2;SDS_P1;SDS_P2;PMS_P1;PMS_P2;Temp;Humidity;BMP_temperature;BMP_pressure;BME280_temperature;BME280_humidity;BME280_pressure;Samples;Min_cycle;Max_cycle;Signal;HPM_P1;HPM_P2
2023/09/03 00:01:41;;;;;;;2.75;1.90;;;;;;;14.72;100.00;101492.88;5031200;28;20507;-83
2023/09/03 00:04:07;;;;;;;2.90;1.15;;;;;;;14.74;100.00;101490.06;5043012;28;20045;-82
2023/09/03 00:06:32;;;;;;;1.52;1.42;;;;;;;14.72;100.00;101492.03;5040513;28;20024;-82
2023/09/03 00:08:58;;;;;;;2.05;1.40;;;;;;;14.74;100.00;101498.06;5072458;28;20028;-83
2023/09/03 00:11:24;;;;;;;1.48;1.38;;;;;;;14.67;100.00;101507.63;5061804;28;20040;-83
2023/09/03 00:13:50;;;;;;;3.15;1.60;;;;;;;14.58;100.00;101504.00;5036935;28;20372;-83
2023/09/03 00:16:15;;;;;;;2.33;1.30;;;;;;;14.45;100.00;101514.94;5071505;28;20035;-83
2023/09/03 00:18:41;;;;;;;1.38;1.27;;;;;;;14.38;100.00;101517.34;5061433;28;20041;-82
2023/09/03 00:21:07;;;;;;;3.00;1.05;;;;;;;14.35;100.00;101521.13;5061213;28;20039;-83
2023/09/03 00:23:33;;;;;;;2.90;1.10;;;;;;;14.31;100.00;101511.75;5072075;28;20041;-83
2023/09/03 00:26:00;;;;;;;2.90;1.13;;;;;;;14.29;100.00;101516.38;5069606;28;20063;-83
2023/09/03 00:28:27;;;;;;;1.70;1.00;;;;;;;14.27;100.00;101519.19;5055909;28;20080;-83
2023/09/03 00:30:59;;;;;;;3.75;1.33;;;;;;;14.33;100.00;101511.63;5064072;28;20085;-82
2023/09/03 00:33:27;;;;;;;4.70;1.45;;;;;;;14.30;100.00;101499.44;5062342;28;20372;-83
2023/09/03 00:35:53;;;;;;;3.58;1.75;;;;;;;14.36;100.00;101498.88;5069351;28;20516;-83
2023/09/03 00:38:20;;;;;;;3.40;2.10;;;;;;;14.41;100.00;101497.59;5049316;28;20031;-83
2023/09/03 00:40:46;;;;;;;3.08;2.17;;;;;;;14.43;100.00;101495.66;5058051;28;20541;-83
2023/09/03 00:43:11;;;;;;;3.83;3.38;;;;;;;14.44;100.00;101492.84;5066971;28;20593;-83
2023/09/03 00:45:41;;;;;;;4.78;1.60;;;;;;;14.41;100.00;101487.81;5059877;28;20065;-82
2023/09/03 00:48:09;;;;;;;4.72;1.65;;;;;;;14.36;100.00;101490.91;5075170;28;20032;-83
2023/09/03 00:50:37;;;;;;;2.17;1.52;;;;;;;14.39;100.00;101485.28;5048170;28;20041;-83
2023/09/03 00:53:05;;;;;;;2.90;1.50;;;;;;;14.34;100.00;101484.88;5077295;28;20039;-82
2023/09/03 00:55:32;;;;;;;2.30;1.45;;;;;;;14.28;100.00;101488.13;5059035;28;20431;-83
2023/09/03 00:57:59;;;;;;;1.85;1.60;;;;;;;14.18;100.00;101484.63;5052520;28;20040;-83
2023/09/03 01:00:25;;;;;;;24.15;1.73;;;;;;;14.07;100.00;101478.50;5056413;28;20036;-83
2023/09/03 01:02:53;;;;;;;3.35;1.40;;;;;;;13.94;100.00;101476.13;5062301;28;20032;-83
2023/09/03 01:05:20;;;;;;;2.17;1.15;;;;;;;13.92;100.00;101475.41;5074251;28;20056;-83
2023/09/03 01:07:48;;;;;;;5.82;1.75;;;;;;;13.94;100.00;101481.44;5071751;28;20127;-82
2023/09/03 01:10:15;;;;;;;8.75;2.38;;;;;;;13.95;100.00;101487.59;5059234;28;20071;-83
2023/09/03 01:13:02;;;;;;;4.53;2.60;;;;;;;13.97;100.00;101482.97;5077681;28;20429;-83
2023/09/03 01:15:32;;;;;;;3.58;2.00;;;;;;;13.98;100.00;101480.16;5030739;28;20166;-82
2023/09/03 01:18:21;;;;;;;2.33;1.70;;;;;;;14.03;100.00;101479.72;5035155;28;20050;-82
2023/09/03 01:21:22;;;;;;;8.70;1.90;;;;;;;14.01;100.00;101487.03;5071034;28;20103;-82
2023/09/03 01:24:17;;;;;;;4.07;1.40;;;;;;;13.95;100.00;101479.63;5022301;28;20448;-83
2023/09/03 01:26:49;;;;;;;5.30;1.17;;;;;;;13.94;100.00;101481.44;5070165;28;20039;-83
2023/09/03 01:29:17;;;;;;;12.13;1.40;;;;;;;13.91;100.00;101480.88;5068544;28;20511;-82
2023/09/03 01:31:44;;;;;;;3.22;1.02;;;;;;;13.87;100.00;101485.66;5030488;28;20071;-82
2023/09/03 01:34:12;;;;;;;2.35;1.30;;;;;;;13.87;100.00;101489.13;5063953;28;20055;-82
2023/09/03 01:36:38;;;;;;;1.50;1.40;;;;;;;13.82;100.00;101485.22;5064855;28;20032;-82
2023/09/03 01:39:04;;;;;;;3.67;1.00;;;;;;;13.78;100.00;101497.94;5051746;28;20043;-82
2023/09/03 01:41:35;;;;;;;2.20;1.05;;;;;;;13.80;100.00;101489.81;5031614;28;20032;-82
2023/09/03 01:44:05;;;;;;;1.30;1.20;;;;;;;13.76;100.00;101483.97;5041979;28;20095;-82
2023/09/03 01:46:55;;;;;;;6.13;1.33;;;;;;;13.77;100.00;101483.84;5028948;28;20041;-83
2023/09/03 01:49:49;;;;;;;8.27;0.90;;;;;;;13.67;100.00;101490.09;5049610;28;20060;-82
2023/09/03 01:52:37;;;;;;;17.35;1.38;;;;;;;13.50;100.00;101487.13;5043910;28;20400;-82
2023/09/03 01:55:09;;;;;;;6.05;1.25;;;;;;;13.45;100.00;101487.53;5065937;28;20044;-82
2023/09/03 01:57:49;;;;;;;15.52;1.88;;;;;;;13.45;100.00;101499.97;5051714;28;20044;-82
2023/09/03 02:00:16;;;;;;;33.47;1.95;;;;;;;13.32;100.00;101506.38;5038472;28;20037;-82
2023/09/03 02:02:44;;;;;;;24.13;1.77;;;;;;;13.27;100.00;101501.47;5048046;28;20029;-81
2023/09/03 02:05:13;;;;;;;24.02;1.23;;;;;;;13.25;100.00;101500.78;5001133;28;20053;-83
2023/09/03 02:07:40;;;;;;;18.38;1.25;;;;;;;13.24;100.00;101511.53;5066968;28;20075;-83
2023/09/03 02:10:06;;;;;;;42.95;1.67;;;;;;;13.23;100.00;101504.53;5058720;28;20476;-82
2023/09/03 02:12:32;;;;;;;28.92;1.38;;;;;;;13.22;100.00;101511.66;5047562;28;20095;-82
2023/09/03 02:14:58;;;;;;;7.35;0.90;;;;;;;13.23;100.00;101516.00;5032851;28;20028;-82
2023/09/03 02:17:24;;;;;;;2.45;0.68;;;;;;;13.26;100.00;101514.91;5052005;28;20385;-82
2023/09/03 02:19:52;;;;;;;6.38;1.73;;;;;;;13.29;100.00;101511.97;5050562;28;20115;-82
2023/09/03 02:22:19;;;;;;;52.97;2.65;;;;;;;13.26;100.00;101509.59;5047997;28;20032;-82
2023/09/03 02:24:45;;;;;;;6.80;1.17;;;;;;;13.24;100.00;101512.38;5031710;28;20041;-82
2023/09/03 02:27:11;;;;;;;124.57;2.88;;;;;;;13.21;100.00;101509.13;5061949;28;20109;-82
2023/09/03 02:29:38;;;;;;;38.30;2.25;;;;;;;13.18;100.00;101509.41;5022212;28;20187;-82
2023/09/03 02:32:05;;;;;;;42.53;2.20;;;;;;;13.20;100.00;101505.66;5030021;28;20025;-82
2023/09/03 02:34:31;;;;;;;10.00;1.67;;;;;;;13.23;100.00;101500.09;5065998;28;20053;-82
2023/09/03 02:36:57;;;;;;;26.75;2.00;;;;;;;13.25;100.00;101506.06;5067411;28;20461;-82
2023/09/03 02:39:23;;;;;;;134.35;3.15;;;;;;;13.25;100.00;101506.06;5068647;28;20047;-82
2023/09/03 02:41:48;;;;;;;30.15;1.50;;;;;;;13.24;100.00;101507.06;5059884;28;20087;-82
2023/09/03 02:44:14;;;;;;;3.17;1.05;;;;;;;13.27;100.00;101498.81;5078076;28;20056;-82
2023/09/03 02:46:40;;;;;;;3.53;1.20;;;;;;;13.31;100.00;101501.22;5056231;28;20033;-81
2023/09/03 02:49:06;;;;;;;2.75;0.90;;;;;;;13.30;100.00;101507.50;5071444;28;20673;-82
2023/09/03 02:51:32;;;;;;;11.75;1.15;;;;;;;13.30;100.00;101510.16;5033931;28;20055;-82
2023/09/03 02:53:58;;;;;;;5.75;2.03;;;;;;;13.26;100.00;101507.78;5057765;28;20050;-82
2023/09/03 02:56:24;;;;;;;8.05;1.52;;;;;;;13.27;100.00;101513.91;5038632;28;20033;-83
2023/09/03 02:58:50;;;;;;;3.80;1.00;;;;;;;13.24;100.00;101499.09;5076903;28;20028;-82
2023/09/03 03:01:19;;;;;;;2.53;1.10;;;;;;;13.24;100.00;101503.56;5062381;28;20447;-82
2023/09/03 03:03:45;;;;;;;4.85;1.08;;;;;;;13.26;100.00;101501.63;5041784;28;20540;-82
2023/09/03 03:06:12;;;;;;;1.67;0.90;;;;;;;13.25;100.00;101495.47;5065055;28;20034;-82
2023/09/03 03:08:38;;;;;;;5.72;1.73;;;;;;;13.25;100.00;101491.97;5080381;28;20035;-82
2023/09/03 03:11:08;;;;;;;7.15;1.60;;;;;;;13.30;100.00;101486.25;5070157;28;20040;-82
2023/09/03 03:13:37;;;;;;;13.02;1.38;;;;;;;13.31;100.00;101485.28;5082781;28;20082;-82
2023/09/03 03:16:10;;;;;;;96.35;2.85;;;;;;;13.33;100.00;101481.50;5066950;28;20264;-82
2023/09/03 03:18:39;;;;;;;25.17;2.67;;;;;;;13.30;100.00;101473.81;5082791;28;20040;-82
2023/09/03 03:21:25;;;;;;;70.47;2.42;;;;;;;13.27;100.00;101474.94;5021023;28;20046;-82
2023/09/03 03:23:58;;;;;;;23.77;2.50;;;;;;;13.21;100.00;101478.13;5058060;28;20032;-82
2023/09/03 03:26:31;;;;;;;22.25;2.53;;;;;;;13.16;100.00;101475.03;5058940;28;20403;-82
2023/09/03 03:28:58;;;;;;;78.13;3.03;;;;;;;13.17;100.00;101475.88;5026420;28;20464;-82
2023/09/03 03:31:23;;;;;;;23.45;2.55;;;;;;;13.18;100.00;101478.41;5073115;28;20090;-82
2023/09/03 03:33:51;;;;;;;65.38;2.75;;;;;;;13.20;100.00;101478.28;5066136;28;20029;-82
2023/09/03 03:36:20;;;;;;;39.10;1.80;;;;;;;13.19;100.00;101466.81;5060199;28;20028;-82
2023/09/03 03:38:46;;;;;;;26.98;2.03;;;;;;;13.17;100.00;101471.41;5070583;28;20135;-82
2023/09/03 03:41:17;;;;;;;20.40;1.92;;;;;;;13.11;100.00;101471.94;5038831;28;20131;-82
2023/09/03 03:43:46;;;;;;;46.75;2.45;;;;;;;13.03;100.00;101477.94;5071405;28;20032;-82
2023/09/03 03:46:15;;;;;;;33.97;2.20;;;;;;;13.01;100.00;101479.91;5040510;28;20032;-82
2023/09/03 03:48:44;;;;;;;13.32;1.58;;;;;;;12.92;100.00;101476.22;5026354;28;20036;-82
2023/09/03 03:51:10;;;;;;;38.30;1.63;;;;;;;12.82;100.00;101478.84;5041173;28;20119;-82
2023/09/03 03:53:36;;;;;;;26.58;1.55;;;;;;;12.73;100.00;101483.13;5076472;28;20032;-82
2023/09/03 03:56:07;;;;;;;12.00;1.48;;;;;;;12.72;100.00;101478.81;5069170;28;20064;-82
2023/09/03 03:58:36;;;;;;;28.48;1.60;;;;;;;12.70;100.00;101467.50;5064282;28;20488;-82
2023/09/03 04:01:15;;;;;;;12.15;1.38;;;;;;;12.74;100.00;101462.75;5072104;28;20041;-82
2023/09/03 04:03:42;;;;;;;8.18;1.50;;;;;;;12.75;100.00;101465.28;5051961;28;20028;-82
2023/09/03 04:06:08;;;;;;;21.08;2.13;;;;;;;12.82;100.00;101470.88;5047978;28;20125;-82
2023/09/03 04:08:37;;;;;;;20.92;2.15;;;;;;;12.90;100.00;101462.25;5045105;28;20041;-82
2023/09/03 04:11:05;;;;;;;47.65;2.67;;;;;;;12.87;100.00;101462.50;5087205;28;20111;-81
2023/09/03 04:13:32;;;;;;;43.60;2.60;;;;;;;12.89;100.00;101460.56;5032367;28;20033;-82
2023/09/03 04:15:59;;;;;;;33.33;2.15;;;;;;;12.94;100.00;101457.50;5052027;28;20034;-82
2023/09/03 04:18:26;;;;;;;29.23;2.50;;;;;;;12.95;100.00;101456.56;5076134;28;20044;-82
2023/09/03 04:20:57;;;;;;;3.38;1.98;;;;;;;12.99;100.00;101453.50;5070977;28;20031;-82
2023/09/03 04:23:25;;;;;;;178.88;4.53;;;;;;;12.98;100.00;101448.31;5054355;28;20036;-82
2023/09/03 04:25:51;;;;;;;22.02;2.72;;;;;;;13.01;100.00;101448.06;5048216;28;20028;-82
2023/09/03 04:28:19;;;;;;;80.20;3.42;;;;;;;13.05;100.00;101454.75;5068767;28;20472;-82
2023/09/03 04:30:45;;;;;;;45.80;3.42;;;;;;;13.10;100.00;101444.59;5037775;28;20056;-81
2023/09/03 04:33:11;;;;;;;22.38;3.17;;;;;;;13.16;100.00;101451.16;5057351;28;20078;-81
2023/09/03 04:35:38;;;;;;;26.30;3.13;;;;;;;13.18;100.00;101437.75;5057518;28;20044;-81
2023/09/03 04:38:05;;;;;;;28.63;2.97;;;;;;;13.23;100.00;101432.88;5046307;28;20041;-81
2023/09/03 04:40:34;;;;;;;17.10;3.17;;;;;;;13.25;100.00;101437.06;5051700;28;20032;-81
2023/09/03 04:43:02;;;;;;;83.00;4.03;;;;;;;13.25;100.00;101433.56;5073889;28;20037;-82
2023/09/03 04:45:29;;;;;;;21.58;3.28;;;;;;;13.24;100.00;101427.41;5071025;28;20111;-81
2023/09/03 04:47:56;;;;;;;35.33;3.08;;;;;;;13.25;100.00;101421.13;5081519;28;20032;-81
2023/09/03 04:50:23;;;;;;;23.15;3.03;;;;;;;13.28;100.00;101433.31;5045487;28;20567;-81
2023/09/03 04:52:49;;;;;;;21.55;3.10;;;;;;;13.26;100.00;101428.13;5038226;28;20495;-82
2023/09/03 04:55:17;;;;;;;66.85;3.55;;;;;;;13.22;100.00;101426.72;5084856;28;20472;-81
2023/09/03 04:57:43;;;;;;;15.40;3.33;;;;;;;13.20;100.00;101433.13;5056867;28;20425;-81
2023/09/03 05:00:10;;;;;;;7.72;2.25;;;;;;;13.25;100.00;101431.75;5070782;28;20035;-81
2023/09/03 05:02:36;;;;;;;3.58;2.15;;;;;;;13.26;100.00;101430.78;5040899;28;20024;-81
2023/09/03 05:05:01;;;;;;;33.55;2.70;;;;;;;13.29;100.00;101429.66;5063986;28;20661;-81
2023/09/03 05:07:28;;;;;;;23.63;2.60;;;;;;;13.25;100.00;101434.41;5070063;28;20071;-81
2023/09/03 05:09:56;;;;;;;11.77;2.45;;;;;;;13.19;100.00;101436.75;5047291;28;20036;-81
2023/09/03 05:12:24;;;;;;;24.52;3.05;;;;;;;13.14;100.00;101438.00;5054834;28;20041;-82
2023/09/03 05:14:50;;;;;;;26.90;2.65;;;;;;;13.17;100.00;101439.53;5069546;28;20384;-81
2023/09/03 05:17:16;;;;;;;32.78;2.83;;;;;;;13.18;100.00;101443.06;5058817;28;20123;-81
2023/09/03 05:19:44;;;;;;;3.38;2.33;;;;;;;13.20;100.00;101447.25;5035832;28;20044;-82
2023/09/03 05:22:10;;;;;;;103.50;3.50;;;;;;;13.21;100.00;101448.09;5035551;28;20412;-82
2023/09/03 05:24:36;;;;;;;41.75;2.80;;;;;;;13.22;100.00;101457.75;5075993;28;20028;-82
2023/09/03 05:27:01;;;;;;;51.47;2.80;;;;;;;13.19;100.00;101448.22;5058823;28;20657;-81
2023/09/03 05:29:27;;;;;;;59.03;2.85;;;;;;;13.15;100.00;101452.13;5044321;28;20040;-81
2023/09/03 05:31:53;;;;;;;32.75;2.65;;;;;;;13.14;100.00;101447.78;5083258;28;20043;-81
2023/09/03 05:34:19;;;;;;;13.27;2.53;;;;;;;13.18;100.00;101446.56;5059702;28;20504;-81
2023/09/03 05:36:45;;;;;;;17.35;1.88;;;;;;;13.23;100.00;101448.78;5041633;28;20071;-83
2023/09/03 05:39:10;;;;;;;2.42;1.67;;;;;;;13.24;100.00;101455.78;5052652;28;20438;-82
2023/09/03 05:41:37;;;;;;;1.92;1.17;;;;;;;13.26;100.00;101456.47;5041503;28;20066;-81
2023/09/03 05:44:08;;;;;;;15.00;1.50;;;;;;;13.27;100.00;101460.81;5078504;28;20036;-82
2023/09/03 05:46:35;;;;;;;28.02;1.55;;;;;;;13.27;100.00;101456.34;5053882;28;20696;-81
2023/09/03 05:49:02;;;;;;;26.80;2.38;;;;;;;13.28;100.00;101460.66;5068388;28;20067;-82
2023/09/03 05:51:28;;;;;;;9.48;2.40;;;;;;;13.30;100.00;101468.50;5043982;28;20044;-81
2023/09/03 05:53:54;;;;;;;21.88;2.20;;;;;;;13.35;100.00;101468.94;5036685;28;20033;-82
2023/09/03 05:56:21;;;;;;;30.67;2.40;;;;;;;13.37;100.00;101469.66;5057749;28;20039;-82
2023/09/03 05:58:48;;;;;;;88.10;3.58;;;;;;;13.40;100.00;101479.13;5051588;28;20032;-81
2023/09/03 06:01:14;;;;;;;46.15;3.22;;;;;;;13.43;100.00;101476.22;5050735;28;20558;-81
2023/09/03 06:03:40;;;;;;;13.98;2.78;;;;;;;13.47;100.00;101472.28;5053901;28;20037;-82
2023/09/03 06:06:10;;;;;;;69.05;4.40;;;;;;;13.54;100.00;101482.41;5034163;28;20419;-81
2023/09/03 06:08:37;;;;;;;48.13;4.00;;;;;;;13.56;100.00;101480.44;5044392;28;20875;-82
2023/09/03 06:11:03;;;;;;;51.30;3.22;;;;;;;13.57;100.00;101482.97;5056977;28;20040;-82
2023/09/03 06:13:30;;;;;;;93.45;4.35;;;;;;;13.59;100.00;101486.31;5060590;28;20035;-82
2023/09/03 06:15:57;;;;;;;50.83;3.40;;;;;;;13.56;100.00;101486.59;5058918;28;20043;-82
2023/09/03 06:18:23;;;;;;;94.10;3.65;;;;;;;13.56;100.00;101488.41;5049431;28;20041;-82
2023/09/03 06:20:50;;;;;;;24.88;3.33;;;;;;;13.58;100.00;101492.63;5056202;28;20036;-81
2023/09/03 06:23:18;;;;;;;115.70;3.30;;;;;;;13.60;100.00;101488.00;5056545;28;20123;-81
2023/09/03 06:25:46;;;;;;;72.90;3.08;;;;;;;13.62;100.00;101501.13;5076709;28;20052;-81
2023/09/03 06:28:12;;;;;;;48.00;2.67;;;;;;;13.64;100.00;101502.69;5039555;28;20040;-81
2023/09/03 06:30:38;;;;;;;12.38;2.10;;;;;;;13.65;100.00;101500.84;5033322;28;20496;-81
2023/09/03 06:33:04;;;;;;;129.88;3.67;;;;;;;13.68;100.00;101497.94;5041230;28;20029;-81
2023/09/03 06:35:30;;;;;;;70.65;3.88;;;;;;;13.68;100.00;101503.25;5058232;28;20040;-81
2023/09/03 06:37:57;;;;;;;180.80;4.05;;;;;;;13.67;100.00;101506.03;5031623;28;20040;-81
2023/09/03 06:40:24;;;;;;;169.48;3.45;;;;;;;13.62;100.00;101523.25;5044833;28;20102;-81
2023/09/03 06:42:51;;;;;;;49.97;2.40;;;;;;;13.61;100.00;101520.72;5079081;28;20037;-82
2023/09/03 06:45:17;;;;;;;60.83;2.55;;;;;;;13.63;100.00;101513.47;5053875;28;20678;-82
2023/09/03 06:47:44;;;;;;;32.95;1.92;;;;;;;13.67;100.00;101506.03;5050425;28;20115;-81
2023/09/03 06:50:10;;;;;;;18.23;1.65;;;;;;;13.66;100.00;101499.06;5064931;28;20023;-81
2023/09/03 06:52:35;;;;;;;67.43;2.45;;;;;;;13.66;100.00;101504.38;5068459;28;20052;-81
2023/09/03 06:55:02;;;;;;;49.15;2.25;;;;;;;13.65;100.00;101506.19;5049738;28;20116;-81
2023/09/03 06:57:28;;;;;;;113.47;3.42;;;;;;;13.61;100.00;101504.78;5063728;28;20040;-81
2023/09/03 06:59:54;;;;;;;29.13;2.00;;;;;;;13.62;100.00;101509.97;5062731;28;20041;-82
2023/09/03 07:02:20;;;;;;;21.08;1.55;;;;;;;13.64;100.00;101510.66;5051302;28;20131;-81
2023/09/03 07:04:46;;;;;;;49.80;1.73;;;;;;;13.69;100.00;101520.03;5072328;28;20506;-81
2023/09/03 07:07:12;;;;;;;152.02;2.95;;;;;;;13.66;100.00;101529.13;5069552;28;20035;-82
2023/09/03 07:09:38;;;;;;;36.35;1.63;;;;;;;13.61;100.00;101528.69;5082898;28;20202;-81
2023/09/03 07:12:04;;;;;;;65.15;2.17;;;;;;;13.54;100.00;101538.19;5009063;28;20421;-81
2023/09/03 07:14:32;;;;;;;36.47;1.60;;;;;;;13.54;100.00;101530.22;5038521;28;20032;-81
2023/09/03 07:16:58;;;;;;;36.20;1.70;;;;;;;13.63;100.00;101535.53;5058451;28;20039;-82
2023/09/03 07:19:25;;;;;;;26.90;1.38;;;;;;;13.69;100.00;101538.63;5062991;28;20028;-82
2023/09/03 07:21:51;;;;;;;63.25;1.55;;;;;;;13.73;100.00;101534.72;5049489;28;20111;-82
2023/09/03 07:24:16;;;;;;;66.32;1.58;;;;;;;13.74;100.00;101539.06;5042952;28;20028;-82
2023/09/03 07:26:43;;;;;;;39.17;1.33;;;;;;;13.74;100.00;101541.72;5076344;28;20459;-82
2023/09/03 07:29:08;;;;;;;29.02;1.17;;;;;;;13.76;100.00;101534.47;5032272;28;20037;-82
2023/09/03 07:31:40;;;;;;;15.50;0.88;;;;;;;13.81;100.00;101544.66;5069510;28;20480;-82
2023/09/03 07:34:07;;;;;;;105.90;2.13;;;;;;;13.84;100.00;101542.56;5066040;28;20072;-82
2023/09/03 07:36:33;;;;;;;19.80;1.40;;;;;;;13.90;100.00;101551.81;5064653;28;20043;-82
2023/09/03 07:38:59;;;;;;;83.43;2.50;;;;;;;13.90;100.00;101557.13;5076209;28;20105;-82
2023/09/03 07:41:25;;;;;;;44.22;1.63;;;;;;;13.91;100.00;101545.50;5051597;28;20044;-82
2023/09/03 07:43:51;;;;;;;59.22;1.95;;;;;;;13.92;100.00;101557.81;5053607;28;20028;-82
2023/09/03 07:46:18;;;;;;;25.55;1.15;;;;;;;13.99;100.00;101563.41;5038328;28;20051;-81
2023/09/03 07:48:43;;;;;;;78.05;2.33;;;;;;;13.98;100.00;101569.72;5072951;28;20039;-82
2023/09/03 07:51:09;;;;;;;44.15;1.65;;;;;;;13.94;100.00;101577.13;5072184;28;20028;-82
2023/09/03 07:53:35;;;;;;;19.40;1.30;;;;;;;13.94;100.00;101581.59;5062966;28;20385;-81
2023/09/03 07:56:01;;;;;;;30.05;1.30;;;;;;;13.97;100.00;101583.97;5046538;28;20476;-82
2023/09/03 07:58:26;;;;;;;45.50;1.45;;;;;;;13.96;100.00;101580.50;5066919;28;20032;-81
2023/09/03 08:00:53;;;;;;;48.80;2.17;;;;;;;13.95;100.00;101583.28;5074306;28;20024;-82
2023/09/03 08:03:18;;;;;;;31.58;2.08;;;;;;;13.95;100.00;101592.06;5047399;28;20033;-82
2023/09/03 08:05:44;;;;;;;38.92;2.08;;;;;;;13.92;100.00;101596.84;5053735;28;20048;-82
2023/09/03 08:08:10;;;;;;;151.13;4.13;;;;;;;13.90;100.00;101589.00;5081039;28;20035;-82
2023/09/03 08:10:35;;;;;;;139.18;3.50;;;;;;;13.86;100.00;101585.78;5050095;28;20081;-82
2023/09/03 08:13:01;;;;;;;21.23;1.80;;;;;;;13.86;100.00;101590.25;5074140;28;20024;-82
2023/09/03 08:15:27;;;;;;;85.85;3.10;;;;;;;13.89;100.00;101587.31;5067533;28;20035;-82
2023/09/03 08:17:53;;;;;;;162.80;4.15;;;;;;;13.90;100.00;101586.34;5078333;28;20036;-82
2023/09/03 08:20:19;;;;;;;29.55;2.10;;;;;;;13.91;100.00;101589.84;5054970;28;20040;-82
2023/09/03 08:22:45;;;;;;;50.13;2.33;;;;;;;14.00;100.00;101596.97;5074262;28;20061;-82
2023/09/03 08:25:12;;;;;;;89.43;3.25;;;;;;;14.05;100.00;101593.94;5070748;28;20033;-82
2023/09/03 08:27:38;;;;;;;64.30;3.25;;;;;;;14.10;100.00;101600.50;5043690;28;20061;-82
2023/09/03 08:30:05;;;;;;;41.53;2.60;;;;;;;14.13;100.00;101605.53;5062679;28;20085;-82
2023/09/03 08:32:31;;;;;;;17.35;2.20;;;;;;;14.20;100.00;101608.47;5078255;28;20028;-82
2023/09/03 08:34:57;;;;;;;10.55;2.05;;;;;;;14.30;100.00;101607.66;5055022;28;20508;-82
2023/09/03 08:37:26;;;;;;;38.47;2.60;;;;;;;14.39;100.00;101599.66;5071546;28;20149;-82
2023/09/03 08:39:52;;;;;;;67.88;3.17;;;;;;;14.43;100.00;101608.19;5077592;28;20578;-82
2023/09/03 08:42:20;;;;;;;28.65;2.78;;;;;;;14.51;100.00;101616.31;5078023;28;20166;-82
2023/09/03 08:44:51;;;;;;;54.15;3.15;;;;;;;14.56;100.00;101621.19;5075052;28;20476;-82
2023/09/03 08:47:17;;;;;;;57.83;2.92;;;;;;;14.55;100.00;101618.69;5049706;28;20036;-82
2023/09/03 08:49:45;;;;;;;4.00;2.58;;;;;;;14.59;100.00;101623.56;5066078;28;20401;-82
2023/09/03 08:52:11;;;;;;;56.80;3.15;;;;;;;14.62;100.00;101622.47;5055360;28;20028;-82
2023/09/03 08:54:40;;;;;;;33.90;3.17;;;;;;;14.67;100.00;101624.69;5070584;28;20040;-82
2023/09/03 08:57:06;;;;;;;13.93;3.08;;;;;;;14.60;100.00;101633.25;5067826;28;20107;-82
2023/09/03 08:59:32;;;;;;;42.50;2.95;;;;;;;14.67;100.00;101624.69;5072502;28;20115;-82
2023/09/03 09:01:59;;;;;;;5.15;3.10;;;;;;;14.67;100.00;101620.19;5050646;28;20094;-82
2023/09/03 09:04:29;;;;;;;17.77;3.05;;;;;;;14.76;100.00;101629.16;5037520;28;20712;-82
2023/09/03 09:06:57;;;;;;;8.82;2.90;;;;;;;14.82;100.00;101628.63;5049224;28;20093;-82
2023/09/03 09:09:26;;;;;;;28.15;3.17;;;;;;;14.90;100.00;101624.38;5066254;28;20044;-82
2023/09/03 09:12:12;;;;;;;7.15;3.17;;;;;;;14.97;100.00;101618.34;5066994;28;20025;-82
2023/09/03 09:14:53;;;;;;;3.45;3.15;;;;;;;15.04;100.00;101613.28;5049493;28;20380;-82
2023/09/03 09:17:19;;;;;;;7.47;3.00;;;;;;;15.11;100.00;101619.69;5068564;28;20064;-82
2023/09/03 09:19:45;;;;;;;3.85;3.55;;;;;;;15.19;100.00;101619.00;5051224;28;20079;-82
2023/09/03 09:22:11;;;;;;;7.95;3.45;;;;;;;15.27;100.00;101618.25;5068252;28;20476;-82
2023/09/03 09:24:44;;;;;;;3.83;3.42;;;;;;;15.40;100.00;101623.22;5070201;28;20094;-82
2023/09/03 09:27:15;;;;;;;6.05;3.83;;;;;;;15.50;100.00;101625.84;5040604;28;20640;-83
2023/09/03 09:29:42;;;;;;;4.03;3.72;;;;;;;15.53;100.00;101624.75;5041277;28;20123;-82
2023/09/03 09:32:23;;;;;;;6.75;3.90;;;;;;;15.55;100.00;101614.75;5069483;28;20027;-82
2023/09/03 09:34:49;;;;;;;3.90;3.60;;;;;;;15.55;100.00;101617.41;5079020;28;20044;-82
2023/09/03 09:37:16;;;;;;;8.35;3.58;;;;;;;15.57;100.00;101613.63;5070719;28;20103;-82
2023/09/03 09:39:46;;;;;;;5.07;3.83;;;;;;;15.64;100.00;101611.19;5058581;28;20044;-82
2023/09/03 09:42:13;;;;;;;4.30;3.90;;;;;;;15.68;100.00;101606.41;5041291;28;20035;-82
2023/09/03 09:44:48;;;;;;;3.95;3.55;;;;;;;15.73;100.00;101615.66;5080391;28;20020;-82
2023/09/03 09:47:15;;;;;;;;;;;;;;;15.69;100.00;101603.59;5060731;28;20027;-83
2023/09/03 09:49:42;;;;;;;3.97;3.67;;;;;;;15.74;100.00;101609.31;5082852;28;19938;-82
2023/09/03 09:52:10;;;;;;;5.60;3.78;;;;;;;15.79;100.00;101608.88;5031444;28;20181;-83
2023/09/03 09:54:38;;;;;;;3.85;3.50;;;;;;;15.84;100.00;101603.09;5051638;28;20039;-83
2023/09/03 09:57:12;;;;;;;4.63;3.85;;;;;;;15.84;100.00;101603.94;5049411;28;20033;-83
2023/09/03 09:59:39;;;;;;;4.40;3.72;;;;;;;15.82;100.00;101618.38;5046509;28;20526;-83
2023/09/03 10:02:13;;;;;;;5.10;4.03;;;;;;;15.91;100.00;101622.00;5049505;28;20154;-83
2023/09/03 10:04:43;;;;;;;5.38;4.20;;;;;;;15.90;100.00;101618.47;5041435;28;20374;-83
2023/09/03 10:07:10;;;;;;;4.20;3.83;;;;;;;15.90;100.00;101618.47;5054664;28;20030;-83
2023/09/03 10:09:37;;;;;;;3.83;3.45;;;;;;;15.98;100.00;101626.59;5054162;28;20039;-83
2023/09/03 10:12:05;;;;;;;4.10;3.22;;;;;;;16.01;100.00;101624.63;5052356;28;20504;-83
2023/09/03 10:14:31;;;;;;;4.43;3.90;;;;;;;16.04;100.00;101613.66;5063543;28;20472;-82
2023/09/03 10:17:02;;;;;;;3.88;3.45;;;;;;;16.15;100.00;101615.25;5072861;28;20024;-83
2023/09/03 10:19:42;;;;;;;3.70;3.40;;;;;;;16.23;100.00;101617.97;5065946;28;20067;-83
2023/09/03 10:22:12;;;;;;;4.68;3.08;;;;;;;16.33;100.00;101617.91;5040741;28;20098;-83
2023/09/03 10:24:39;;;;;;;5.82;3.40;;;;;;;16.39;100.00;101619.94;5060285;28;20086;-82
2023/09/03 10:27:09;;;;;;;3.38;3.13;;;;;;;16.46;100.00;101617.50;5048127;28;20040;-82
2023/09/03 10:29:36;;;;;;;5.38;3.05;;;;;;;16.49;100.00;101618.06;5070094;28;20162;-82
2023/09/03 10:32:05;;;;;;;3.55;3.25;;;;;;;16.48;100.00;101616.34;5069597;28;20036;-83
2023/09/03 10:34:33;;;;;;;4.63;3.40;;;;;;;16.45;100.00;101616.66;5011793;28;20073;-82
2023/09/03 10:37:04;;;;;;;6.05;3.15;;;;;;;16.49;100.00;101610.03;5062572;28;20048;-83
2023/09/03 10:39:30;;;;;;;3.42;3.13;;;;;;;16.48;100.00;101605.69;5064074;28;20083;-83
2023/09/03 10:42:14;;;;;;;4.03;3.38;;;;;;;16.55;100.00;101602.38;5012963;28;20592;-83
2023/09/03 10:44:45;;;;;;;3.50;3.17;;;;;;;16.56;100.00;101607.56;5055714;28;20043;-82
2023/09/03 10:47:13;;;;;;;5.82;3.63;;;;;;;16.59;100.00;101607.28;5039316;28;20029;-82
2023/09/03 10:49:51;;;;;;;5.20;3.20;;;;;;;16.65;100.00;101602.28;5027445;28;20041;-83
2023/09/03 10:52:26;;;;;;;3.67;3.38;;;;;;;16.65;100.00;101602.28;5051946;28;20036;-83
2023/09/03 10:55:10;;;;;;;8.70;3.50;;;;;;;16.59;100.00;101603.78;5055876;28;20536;-83
2023/09/03 10:57:36;;;;;;;4.25;3.85;;;;;;;16.47;100.00;101611.16;5049217;28;20043;-83
2023/09/03 11:00:05;;;;;;;9.82;4.20;;;;;;;16.45;100.00;101610.50;5067820;28;20032;-83
2023/09/03 11:02:31;;;;;;;3.92;3.63;;;;;;;16.46;100.00;101607.69;5050352;28;20058;-83
2023/09/03 11:05:14;;;;;;;3.65;3.38;;;;;;;16.53;100.00;101605.22;5047277;28;20492;-83
2023/09/03 11:07:42;;;;;;;3.58;3.15;;;;;;;16.51;100.00;101601.88;5053124;28;20079;-83
2023/09/03 11:10:19;;;;;;;4.72;3.10;;;;;;;16.59;100.00;101601.94;5048464;28;20048;-82
2023/09/03 11:12:46;;;;;;;4.43;3.20;;;;;;;16.60;100.00;101590.28;5057100;28;20044;-82
2023/09/03 11:15:13;;;;;;;4.93;4.13;;;;;;;16.66;100.00;101598.66;5057319;28;20528;-82
2023/09/03 11:17:55;;;;;;;5.00;3.30;;;;;;;16.71;100.00;101597.19;5067596;28;20039;-82